sensor_id;sensor_type;location;lat;lon;timestamp;temperature;humidity
77829;DHT22;67019;51.034;3.728;2024-03-08T00:02:14;5.20;99.90
77829;DHT22;67019;51.034;3.728;2024-03-08T00:04:42;5.00;99.90
77829;DHT22;67019;51.034;3.728;2024-03-08T00:07:10;4.90;99.90
77829;DHT22;67019;51.034;3.728;2024-03-08T00:09:39;5.00;99.90
77829;DHT22;67019;51.034;3.728;2024-03-08T00:12:06;5.10;99.90
77829;DHT22;67019;51.034;3.728;2024-03-08T00:14:33;5.00;99.90
77829;DHT22;67019;51.034;3.728;2024-03-08T00:16:59;4.90;99.90
77829;DHT22;67019;51.034;3.728;2024-03-08T00:19:26;4.90;99.90
77829;DHT22;67019;51.034;3.728;2024-03-08T00:21:53;4.80;99.90
77829;DHT22;67019;51.034;3.728;2024-03-08T00:24:21;4.90;99.90
77829;DHT22;67019;51.034;3.728;2024-03-08T00:26:49;4.80;99.90
77829;DHT22;67019;51.034;3.728;2024-03-08T00:29:16;4.90;99.90
77829;DHT22;67019;51.034;3.728;2024-03-08T00:31:43;4.80;99.90
77829;DHT22;67019;51.034;3.728;2024-03-08T00:34:10;4.90;99.90
77829;DHT22;67019;51.034;3.728;2024-03-08T00:36:37;5.00;99.90
77829;DHT22;67019;51.034;3.728;2024-03-08T00:39:04;5.00;99.90
77829;DHT22;67019;51.034;3.728;2024-03-08T00:41:34;4.90;99.90
77829;DHT22;67019;51.034;3.728;2024-03-08T00:44:01;4.80;99.90
77829;DHT22;67019;51.034;3.728;2024-03-08T00:46:30;4.70;99.90
77829;DHT22;67019;51.034;3.728;2024-03-08T00:48:57;4.80;99.90
77829;DHT22;67019;51.034;3.728;2024-03-08T00:51:24;4.80;99.90
77829;DHT22;67019;51.034;3.728;2024-03-08T00:53:51;4.70;99.90
77829;DHT22;67019;51.034;3.728;2024-03-08T00:56:18;4.70;99.90
77829;DHT22;67019;51.034;3.728;2024-03-08T00:58:45;4.70;99.90
77829;DHT22;67019;51.034;3.728;2024-03-08T01:01:15;4.50;99.90
77829;DHT22;67019;51.034;3.728;2024-03-08T01:03:45;4.50;99.90
77829;DHT22;67019;51.034;3.728;2024-03-08T01:06:12;4.60;99.90
77829;DHT22;67019;51.034;3.728;2024-03-08T01:08:38;4.60;99.90
77829;DHT22;67019;51.034;3.728;2024-03-08T01:11:07;4.60;99.90
77829;DHT22;67019;51.034;3.728;2024-03-08T01:13:35;4.60;99.90
77829;DHT22;67019;51.034;3.728;2024-03-08T01:16:02;4.70;99.90
77829;DHT22;67019;51.034;3.728;2024-03-08T01:18:29;4.60;99.90
77829;DHT22;67019;51.034;3.728;2024-03-08T01:20:56;4.60;99.90
77829;DHT22;67019;51.034;3.728;2024-03-08T01:23:23;4.60;99.90
77829;DHT22;67019;51.034;3.728;2024-03-08T01:25:50;4.10;99.90
77829;DHT22;67019;51.034;3.728;2024-03-08T01:28:18;4.40;99.90
77829;DHT22;67019;51.034;3.728;2024-03-08T01:30:46;4.40;99.90
77829;DHT22;67019;51.034;3.728;2024-03-08T01:33:15;4.60;99.90
77829;DHT22;67019;51.034;3.728;2024-03-08T01:35:42;4.50;99.90
77829;DHT22;67019;51.034;3.728;2024-03-08T01:38:09;4.50;99.90
77829;DHT22;67019;51.034;3.728;2024-03-08T01:40:35;4.50;99.90
77829;DHT22;67019;51.034;3.728;2024-03-08T01:43:21;4.60;99.90
77829;DHT22;67019;51.034;3.728;2024-03-08T01:45:48;4.40;99.90
77829;DHT22;67019;51.034;3.728;2024-03-08T01:48:16;4.20;99.90
77829;DHT22;67019;51.034;3.728;2024-03-08T01:50:43;4.20;99.90
77829;DHT22;67019;51.034;3.728;2024-03-08T01:53:11;4.30;99.90
77829;DHT22;67019;51.034;3.728;2024-03-08T01:55:38;4.30;99.90
77829;DHT22;67019;51.034;3.728;2024-03-08T01:58:05;4.20;99.90
77829;DHT22;67019;51.034;3.728;2024-03-08T02:00:33;4.10;99.90
77829;DHT22;67019;51.034;3.728;2024-03-08T02:03:01;4.40;99.90
77829;DHT22;67019;51.034;3.728;2024-03-08T02:05:28;4.30;99.90
77829;DHT22;67019;51.034;3.728;2024-03-08T02:07:55;4.10;99.90
77829;DHT22;67019;51.034;3.728;2024-03-08T02:10:22;4.10;99.90
77829;DHT22;67019;51.034;3.728;2024-03-08T02:12:49;4.10;99.90
77829;DHT22;67019;51.034;3.728;2024-03-08T02:15:17;4.20;99.90
77829;DHT22;67019;51.034;3.728;2024-03-08T02:17:44;4.20;99.90
77829;DHT22;67019;51.034;3.728;2024-03-08T02:20:11;4.20;99.90
77829;DHT22;67019;51.034;3.728;2024-03-08T02:22:39;4.00;99.90
77829;DHT22;67019;51.034;3.728;2024-03-08T02:25:06;4.00;99.90
77829;DHT22;67019;51.034;3.728;2024-03-08T02:27:33;4.00;99.90
77829;DHT22;67019;51.034;3.728;2024-03-08T02:30:00;3.80;99.90
77829;DHT22;67019;51.034;3.728;2024-03-08T02:32:27;6.90;99.90
77829;DHT22;67019;51.034;3.728;2024-03-08T02:34:57;4.20;99.90
77829;DHT22;67019;51.034;3.728;2024-03-08T02:37:25;4.10;99.90
77829;DHT22;67019;51.034;3.728;2024-03-08T02:42:40;3.80;99.90
77829;DHT22;67019;51.034;3.728;2024-03-08T02:45:07;4.00;99.90
77829;DHT22;67019;51.034;3.728;2024-03-08T02:47:35;1.80;99.90
77829;DHT22;67019;51.034;3.728;2024-03-08T02:50:02;4.00;99.90
77829;DHT22;67019;51.034;3.728;2024-03-08T02:52:29;3.90;99.90
77829;DHT22;67019;51.034;3.728;2024-03-08T02:54:56;3.90;99.90
77829;DHT22;67019;51.034;3.728;2024-03-08T02:57:23;3.90;99.90
77829;DHT22;67019;51.034;3.728;2024-03-08T02:59:50;3.80;99.90
77829;DHT22;67019;51.034;3.728;2024-03-08T03:02:17;4.00;99.90
77829;DHT22;67019;51.034;3.728;2024-03-08T03:04:44;3.80;99.90
77829;DHT22;67019;51.034;3.728;2024-03-08T03:07:11;3.90;99.90
77829;DHT22;67019;51.034;3.728;2024-03-08T03:09:38;3.80;99.90
77829;DHT22;67019;51.034;3.728;2024-03-08T03:12:04;3.80;99.90
77829;DHT22;67019;51.034;3.728;2024-03-08T03:14:33;3.90;99.90
77829;DHT22;67019;51.034;3.728;2024-03-08T03:17:03;3.70;99.90
77829;DHT22;67019;51.034;3.728;2024-03-08T03:19:30;3.60;99.90
77829;DHT22;67019;51.034;3.728;2024-03-08T03:21:57;3.80;99.90
77829;DHT22;67019;51.034;3.728;2024-03-08T03:24:24;3.70;99.90
77829;DHT22;67019;51.034;3.728;2024-03-08T03:26:51;3.70;99.90
77829;DHT22;67019;51.034;3.728;2024-03-08T03:29:18;3.70;99.90
77829;DHT22;67019;51.034;3.728;2024-03-08T03:31:46;3.70;99.90
77829;DHT22;67019;51.034;3.728;2024-03-08T03:34:13;3.70;99.90
77829;DHT22;67019;51.034;3.728;2024-03-08T03:36:39;3.70;99.90
77829;DHT22;67019;51.034;3.728;2024-03-08T03:39:11;3.70;99.90
77829;DHT22;67019;51.034;3.728;2024-03-08T03:41:42;3.50;99.90
77829;DHT22;67019;51.034;3.728;2024-03-08T03:44:10;3.60;99.90
77829;DHT22;67019;51.034;3.728;2024-03-08T03:46:37;3.60;99.90
77829;DHT22;67019;51.034;3.728;2024-03-08T03:49:04;3.70;99.90
77829;DHT22;67019;51.034;3.728;2024-03-08T03:51:31;3.50;99.90
77829;DHT22;67019;51.034;3.728;2024-03-08T03:53:58;3.60;99.90
77829;DHT22;67019;51.034;3.728;2024-03-08T03:56:25;3.50;99.90
77829;DHT22;67019;51.034;3.728;2024-03-08T03:58:52;3.60;99.90
77829;DHT22;67019;51.034;3.728;2024-03-08T04:01:19;3.70;99.90
77829;DHT22;67019;51.034;3.728;2024-03-08T04:03:46;3.40;99.90
77829;DHT22;67019;51.034;3.728;2024-03-08T04:06:13;3.30;99.90
77829;DHT22;67019;51.034;3.728;2024-03-08T04:08:40;3.40;99.90
77829;DHT22;67019;51.034;3.728;2024-03-08T04:11:07;3.40;99.90
77829;DHT22;67019;51.034;3.728;2024-03-08T04:13:37;3.50;99.90
77829;DHT22;67019;51.034;3.728;2024-03-08T04:16:04;3.50;99.90
77829;DHT22;67019;51.034;3.728;2024-03-08T04:18:32;3.40;99.90
77829;DHT22;67019;51.034;3.728;2024-03-08T04:21:01;4.70;99.90
77829;DHT22;67019;51.034;3.728;2024-03-08T04:23:28;3.30;99.90
77829;DHT22;67019;51.034;3.728;2024-03-08T04:25:55;3.40;99.90
77829;DHT22;67019;51.034;3.728;2024-03-08T04:28:22;3.20;99.90
77829;DHT22;67019;51.034;3.728;2024-03-08T04:30:49;3.30;99.90
77829;DHT22;67019;51.034;3.728;2024-03-08T04:33:16;3.30;99.90
77829;DHT22;67019;51.034;3.728;2024-03-08T04:35:45;3.30;99.90
77829;DHT22;67019;51.034;3.728;2024-03-08T04:38:12;3.30;99.90
77829;DHT22;67019;51.034;3.728;2024-03-08T04:40:39;-1.00;99.90
77829;DHT22;67019;51.034;3.728;2024-03-08T04:43:06;3.30;99.90
77829;DHT22;67019;51.034;3.728;2024-03-08T04:45:34;3.30;99.90
77829;DHT22;67019;51.034;3.728;2024-03-08T04:48:03;3.40;99.90
77829;DHT22;67019;51.034;3.728;2024-03-08T04:50:30;3.20;99.90
77829;DHT22;67019;51.034;3.728;2024-03-08T04:52:56;3.30;99.90
77829;DHT22;67019;51.034;3.728;2024-03-08T04:55:23;3.20;99.90
77829;DHT22;67019;51.034;3.728;2024-03-08T04:57:50;3.10;99.90
77829;DHT22;67019;51.034;3.728;2024-03-08T05:00:17;3.20;99.90
77829;DHT22;67019;51.034;3.728;2024-03-08T05:02:45;3.00;99.90
77829;DHT22;67019;51.034;3.728;2024-03-08T05:05:12;3.10;99.90
77829;DHT22;67019;51.034;3.728;2024-03-08T05:07:39;5.90;99.90
77829;DHT22;67019;51.034;3.728;2024-03-08T05:10:06;6.20;99.90
77829;DHT22;67019;51.034;3.728;2024-03-08T05:12:33;3.00;99.90
77829;DHT22;67019;51.034;3.728;2024-03-08T05:15:00;2.90;99.90
77829;DHT22;67019;51.034;3.728;2024-03-08T05:17:27;3.00;99.90
77829;DHT22;67019;51.034;3.728;2024-03-08T05:19:55;3.00;99.90
77829;DHT22;67019;51.034;3.728;2024-03-08T05:22:22;3.10;99.90
77829;DHT22;67019;51.034;3.728;2024-03-08T05:24:49;3.00;99.90
77829;DHT22;67019;51.034;3.728;2024-03-08T05:27:16;3.00;99.90
77829;DHT22;67019;51.034;3.728;2024-03-08T05:29:43;3.10;99.90
77829;DHT22;67019;51.034;3.728;2024-03-08T05:32:10;3.10;99.90
77829;DHT22;67019;51.034;3.728;2024-03-08T05:34:38;3.10;99.90
77829;DHT22;67019;51.034;3.728;2024-03-08T05:37:05;3.10;99.90
77829;DHT22;67019;51.034;3.728;2024-03-08T05:39:33;3.50;99.90
77829;DHT22;67019;51.034;3.728;2024-03-08T05:42:00;3.10;99.90
77829;DHT22;67019;51.034;3.728;2024-03-08T05:44:26;3.10;99.90
77829;DHT22;67019;51.034;3.728;2024-03-08T05:46:54;-0.20;99.90
77829;DHT22;67019;51.034;3.728;2024-03-08T05:49:22;2.90;99.90
77829;DHT22;67019;51.034;3.728;2024-03-08T05:51:50;2.90;99.90
77829;DHT22;67019;51.034;3.728;2024-03-08T05:54:17;2.80;99.90
77829;DHT22;67019;51.034;3.728;2024-03-08T05:56:44;2.80;99.90
77829;DHT22;67019;51.034;3.728;2024-03-08T05:59:11;3.00;99.90
77829;DHT22;67019;51.034;3.728;2024-03-08T06:01:38;2.60;99.90
77829;DHT22;67019;51.034;3.728;2024-03-08T06:04:06;3.00;99.90
77829;DHT22;67019;51.034;3.728;2024-03-08T06:06:33;2.90;99.90
77829;DHT22;67019;51.034;3.728;2024-03-08T06:09:02;2.70;99.90
77829;DHT22;67019;51.034;3.728;2024-03-08T06:11:30;2.60;99.90
77829;DHT22;67019;51.034;3.728;2024-03-08T06:13:57;2.80;99.90
77829;DHT22;67019;51.034;3.728;2024-03-08T06:16:28;3.60;99.90
77829;DHT22;67019;51.034;3.728;2024-03-08T06:18:56;2.60;99.90
77829;DHT22;67019;51.034;3.728;2024-03-08T06:21:23;2.60;99.90
77829;DHT22;67019;51.034;3.728;2024-03-08T06:23:54;2.80;99.90
77829;DHT22;67019;51.034;3.728;2024-03-08T06:26:36;2.80;99.90
77829;DHT22;67019;51.034;3.728;2024-03-08T06:28:53;2.60;99.90
77829;DHT22;67019;51.034;3.728;2024-03-08T06:31:20;2.60;99.90
77829;DHT22;67019;51.034;3.728;2024-03-08T06:33:47;2.30;99.90
77829;DHT22;67019;51.034;3.728;2024-03-08T06:36:18;2.60;99.90
77829;DHT22;67019;51.034;3.728;2024-03-08T06:38:51;2.70;99.90
77829;DHT22;67019;51.034;3.728;2024-03-08T06:41:15;2.60;99.90
77829;DHT22;67019;51.034;3.728;2024-03-08T06:43:42;2.80;99.90
77829;DHT22;67019;51.034;3.728;2024-03-08T06:46:09;2.60;99.90
77829;DHT22;67019;51.034;3.728;2024-03-08T06:48:38;2.60;99.90
77829;DHT22;67019;51.034;3.728;2024-03-08T06:51:05;2.50;99.90
77829;DHT22;67019;51.034;3.728;2024-03-08T06:53:32;2.70;99.90
77829;DHT22;67019;51.034;3.728;2024-03-08T06:56:01;2.40;99.90
77829;DHT22;67019;51.034;3.728;2024-03-08T06:58:28;2.70;99.90
77829;DHT22;67019;51.034;3.728;2024-03-08T07:00:55;2.60;99.90
77829;DHT22;67019;51.034;3.728;2024-03-08T07:03:24;3.70;99.90
77829;DHT22;67019;51.034;3.728;2024-03-08T07:05:52;2.90;99.90
77829;DHT22;67019;51.034;3.728;2024-03-08T07:08:19;2.90;99.90
77829;DHT22;67019;51.034;3.728;2024-03-08T07:10:47;3.10;99.90
77829;DHT22;67019;51.034;3.728;2024-03-08T07:13:15;3.10;99.90
77829;DHT22;67019;51.034;3.728;2024-03-08T07:15:44;3.30;99.90
77829;DHT22;67019;51.034;3.728;2024-03-08T07:18:11;3.30;99.90
77829;DHT22;67019;51.034;3.728;2024-03-08T07:20:41;3.00;99.90
77829;DHT22;67019;51.034;3.728;2024-03-08T07:23:09;3.20;99.90
77829;DHT22;67019;51.034;3.728;2024-03-08T07:25:36;3.10;99.90
77829;DHT22;67019;51.034;3.728;2024-03-08T07:28:05;6.00;99.90
77829;DHT22;67019;51.034;3.728;2024-03-08T07:30:33;3.20;99.90
77829;DHT22;67019;51.034;3.728;2024-03-08T07:33:11;3.20;99.90
77829;DHT22;67019;51.034;3.728;2024-03-08T07:35:38;3.30;99.90
77829;DHT22;67019;51.034;3.728;2024-03-08T07:38:10;4.20;99.90
77829;DHT22;67019;51.034;3.728;2024-03-08T07:40:35;3.30;99.90
77829;DHT22;67019;51.034;3.728;2024-03-08T07:43:04;3.20;99.90
77829;DHT22;67019;51.034;3.728;2024-03-08T07:45:31;3.30;99.90
77829;DHT22;67019;51.034;3.728;2024-03-08T07:47:58;3.40;99.90
77829;DHT22;67019;51.034;3.728;2024-03-08T07:50:25;3.50;99.90
77829;DHT22;67019;51.034;3.728;2024-03-08T07:52:52;3.40;99.90
77829;DHT22;67019;51.034;3.728;2024-03-08T07:55:19;3.50;99.90
77829;DHT22;67019;51.034;3.728;2024-03-08T07:57:46;3.60;99.90
77829;DHT22;67019;51.034;3.728;2024-03-08T08:00:13;3.60;99.90
77829;DHT22;67019;51.034;3.728;2024-03-08T08:02:42;3.70;99.90
77829;DHT22;67019;51.034;3.728;2024-03-08T08:05:09;0.60;99.90
77829;DHT22;67019;51.034;3.728;2024-03-08T08:07:36;3.70;99.90
77829;DHT22;67019;51.034;3.728;2024-03-08T08:10:03;3.70;99.90
77829;DHT22;67019;51.034;3.728;2024-03-08T08:12:31;3.80;99.90
77829;DHT22;67019;51.034;3.728;2024-03-08T08:15:00;3.90;99.90
77829;DHT22;67019;51.034;3.728;2024-03-08T08:17:27;3.70;99.90
77829;DHT22;67019;51.034;3.728;2024-03-08T08:20:00;3.80;99.90
77829;DHT22;67019;51.034;3.728;2024-03-08T08:22:25;3.90;99.90
77829;DHT22;67019;51.034;3.728;2024-03-08T08:24:53;4.00;99.90
77829;DHT22;67019;51.034;3.728;2024-03-08T08:27:20;4.00;99.90
77829;DHT22;67019;51.034;3.728;2024-03-08T08:29:47;4.10;99.90
77829;DHT22;67019;51.034;3.728;2024-03-08T08:32:15;7.00;99.90
77829;DHT22;67019;51.034;3.728;2024-03-08T08:34:43;4.30;99.90
77829;DHT22;67019;51.034;3.728;2024-03-08T08:37:10;7.80;99.90
77829;DHT22;67019;51.034;3.728;2024-03-08T08:39:38;4.30;99.90
77829;DHT22;67019;51.034;3.728;2024-03-08T08:42:05;4.40;99.90
77829;DHT22;67019;51.034;3.728;2024-03-08T08:44:33;4.40;99.90
77829;DHT22;67019;51.034;3.728;2024-03-08T08:47:01;4.50;99.90
77829;DHT22;67019;51.034;3.728;2024-03-08T08:49:29;4.40;99.90
77829;DHT22;67019;51.034;3.728;2024-03-08T08:51:56;4.50;99.90
77829;DHT22;67019;51.034;3.728;2024-03-08T08:54:25;4.40;99.90
77829;DHT22;67019;51.034;3.728;2024-03-08T08:56:53;4.70;99.90
77829;DHT22;67019;51.034;3.728;2024-03-08T08:59:20;4.80;99.90
77829;DHT22;67019;51.034;3.728;2024-03-08T09:01:48;4.90;99.90
77829;DHT22;67019;51.034;3.728;2024-03-08T09:04:17;4.90;99.90
77829;DHT22;67019;51.034;3.728;2024-03-08T09:06:46;5.10;99.90
77829;DHT22;67019;51.034;3.728;2024-03-08T09:09:12;5.10;99.90
77829;DHT22;67019;51.034;3.728;2024-03-08T09:11:39;5.10;99.90
77829;DHT22;67019;51.034;3.728;2024-03-08T09:14:08;5.30;99.90
77829;DHT22;67019;51.034;3.728;2024-03-08T09:16:37;5.40;99.90
77829;DHT22;67019;51.034;3.728;2024-03-08T09:19:04;5.60;99.90
77829;DHT22;67019;51.034;3.728;2024-03-08T09:21:33;5.70;99.90
77829;DHT22;67019;51.034;3.728;2024-03-08T09:24:08;5.60;99.90
77829;DHT22;67019;51.034;3.728;2024-03-08T09:26:33;5.60;99.90
77829;DHT22;67019;51.034;3.728;2024-03-08T09:29:00;5.70;99.90
77829;DHT22;67019;51.034;3.728;2024-03-08T09:31:27;5.70;99.90
77829;DHT22;67019;51.034;3.728;2024-03-08T09:33:53;5.70;99.90
77829;DHT22;67019;51.034;3.728;2024-03-08T09:36:20;5.90;99.90
77829;DHT22;67019;51.034;3.728;2024-03-08T09:38:47;5.90;99.90
77829;DHT22;67019;51.034;3.728;2024-03-08T09:41:16;6.00;99.90
77829;DHT22;67019;51.034;3.728;2024-03-08T09:43:43;6.20;99.90
77829;DHT22;67019;51.034;3.728;2024-03-08T09:46:11;6.10;99.90
77829;DHT22;67019;51.034;3.728;2024-03-08T09:48:38;6.00;99.90
77829;DHT22;67019;51.034;3.728;2024-03-08T09:51:06;6.10;99.90
77829;DHT22;67019;51.034;3.728;2024-03-08T09:53:34;6.20;99.90
77829;DHT22;67019;51.034;3.728;2024-03-08T09:56:02;6.20;99.90
77829;DHT22;67019;51.034;3.728;2024-03-08T09:58:29;6.30;99.90
77829;DHT22;67019;51.034;3.728;2024-03-08T10:01:00;6.60;99.90
77829;DHT22;67019;51.034;3.728;2024-03-08T10:03:33;6.80;99.90
77829;DHT22;67019;51.034;3.728;2024-03-08T10:06:01;6.80;99.90
77829;DHT22;67019;51.034;3.728;2024-03-08T10:08:28;6.70;99.90
77829;DHT22;67019;51.034;3.728;2024-03-08T10:10:55;6.70;99.90
77829;DHT22;67019;51.034;3.728;2024-03-08T10:13:24;6.70;99.90
77829;DHT22;67019;51.034;3.728;2024-03-08T10:15:53;6.90;99.90
77829;DHT22;67019;51.034;3.728;2024-03-08T10:18:20;7.00;99.90
77829;DHT22;67019;51.034;3.728;2024-03-08T10:21:01;7.00;99.90
77829;DHT22;67019;51.034;3.728;2024-03-08T10:23:16;7.00;99.90
77829;DHT22;67019;51.034;3.728;2024-03-08T10:25:43;7.00;99.90
77829;DHT22;67019;51.034;3.728;2024-03-08T10:28:10;7.10;99.90
77829;DHT22;67019;51.034;3.728;2024-03-08T10:30:38;7.10;99.90
77829;DHT22;67019;51.034;3.728;2024-03-08T10:33:05;7.20;99.90
77829;DHT22;67019;51.034;3.728;2024-03-08T10:35:32;7.30;99.90
77829;DHT22;67019;51.034;3.728;2024-03-08T10:37:59;7.50;99.90
77829;DHT22;67019;51.034;3.728;2024-03-08T10:40:29;7.60;99.90
77829;DHT22;67019;51.034;3.728;2024-03-08T10:42:57;7.70;99.90
77829;DHT22;67019;51.034;3.728;2024-03-08T10:50:45;7.50;99.90
77829;DHT22;67019;51.034;3.728;2024-03-08T10:53:14;7.50;99.90
77829;DHT22;67019;51.034;3.728;2024-03-08T10:55:42;7.60;99.90
77829;DHT22;67019;51.034;3.728;2024-03-08T10:58:09;7.90;99.90
77829;DHT22;67019;51.034;3.728;2024-03-08T11:00:36;8.00;99.90
77829;DHT22;67019;51.034;3.728;2024-03-08T11:03:03;8.10;99.90
77829;DHT22;67019;51.034;3.728;2024-03-08T11:05:37;8.20;99.90
77829;DHT22;67019;51.034;3.728;2024-03-08T11:11:02;8.30;99.90
77829;DHT22;67019;51.034;3.728;2024-03-08T11:13:32;8.30;99.90
77829;DHT22;67019;51.034;3.728;2024-03-08T11:16:01;8.40;99.90
77829;DHT22;67019;51.034;3.728;2024-03-08T11:18:29;8.50;99.90
77829;DHT22;67019;51.034;3.728;2024-03-08T11:20:58;8.70;99.90
77829;DHT22;67019;51.034;3.728;2024-03-08T11:23:25;8.60;99.90
77829;DHT22;67019;51.034;3.728;2024-03-08T11:25:53;8.60;99.90
77829;DHT22;67019;51.034;3.728;2024-03-08T11:28:21;8.70;99.90
77829;DHT22;67019;51.034;3.728;2024-03-08T11:33:26;8.90;99.90
77829;DHT22;67019;51.034;3.728;2024-03-08T11:36:12;9.10;99.90
77829;DHT22;67019;51.034;3.728;2024-03-08T11:38:41;9.10;99.90
77829;DHT22;67019;51.034;3.728;2024-03-08T11:41:10;8.90;99.90
77829;DHT22;67019;51.034;3.728;2024-03-08T11:43:40;8.80;99.90
77829;DHT22;67019;51.034;3.728;2024-03-08T11:46:10;8.90;99.90
77829;DHT22;67019;51.034;3.728;2024-03-08T11:48:35;9.00;99.90
77829;DHT22;67019;51.034;3.728;2024-03-08T11:51:03;9.10;99.90
77829;DHT22;67019;51.034;3.728;2024-03-08T11:53:30;9.10;99.90
77829;DHT22;67019;51.034;3.728;2024-03-08T11:56:09;9.30;99.90
77829;DHT22;67019;51.034;3.728;2024-03-08T11:58:40;9.40;99.90
77829;DHT22;67019;51.034;3.728;2024-03-08T12:01:10;9.40;99.90
77829;DHT22;67019;51.034;3.728;2024-03-08T12:03:36;9.40;99.90
77829;DHT22;67019;51.034;3.728;2024-03-08T12:06:04;9.30;99.90
77829;DHT22;67019;51.034;3.728;2024-03-08T12:08:31;9.40;99.90
77829;DHT22;67019;51.034;3.728;2024-03-08T12:11:02;9.40;99.90
77829;DHT22;67019;51.034;3.728;2024-03-08T12:13:27;9.50;99.90
77829;DHT22;67019;51.034;3.728;2024-03-08T12:15:56;9.70;99.90
77829;DHT22;67019;51.034;3.728;2024-03-08T12:18:25;9.80;99.90
77829;DHT22;67019;51.034;3.728;2024-03-08T12:21:09;9.80;99.90
77829;DHT22;67019;51.034;3.728;2024-03-08T12:23:37;10.00;99.90
77829;DHT22;67019;51.034;3.728;2024-03-08T12:26:11;10.00;99.90
77829;DHT22;67019;51.034;3.728;2024-03-08T12:28:39;10.00;99.90
77829;DHT22;67019;51.034;3.728;2024-03-08T12:31:07;10.10;99.90
77829;DHT22;67019;51.034;3.728;2024-03-08T12:33:53;10.30;99.90
77829;DHT22;67019;51.034;3.728;2024-03-08T12:36:20;10.40;99.90
77829;DHT22;67019;51.034;3.728;2024-03-08T12:38:47;10.30;99.90
77829;DHT22;67019;51.034;3.728;2024-03-08T12:41:14;10.20;99.90
77829;DHT22;67019;51.034;3.728;2024-03-08T12:43:43;10.20;99.90
77829;DHT22;67019;51.034;3.728;2024-03-08T12:46:19;10.30;99.90
77829;DHT22;67019;51.034;3.728;2024-03-08T12:48:48;10.30;99.90
77829;DHT22;67019;51.034;3.728;2024-03-08T12:51:15;10.30;99.90
77829;DHT22;67019;51.034;3.728;2024-03-08T12:53:42;10.40;99.90
77829;DHT22;67019;51.034;3.728;2024-03-08T12:56:13;10.50;99.90
77829;DHT22;67019;51.034;3.728;2024-03-08T12:58:41;10.50;99.90
77829;DHT22;67019;51.034;3.728;2024-03-08T13:01:10;10.50;99.90
77829;DHT22;67019;51.034;3.728;2024-03-08T13:03:38;10.50;99.90
77829;DHT22;67019;51.034;3.728;2024-03-08T13:06:05;10.40;99.90
77829;DHT22;67019;51.034;3.728;2024-03-08T13:08:36;10.40;99.90
77829;DHT22;67019;51.034;3.728;2024-03-08T13:11:08;10.30;99.90
77829;DHT22;67019;51.034;3.728;2024-03-08T13:13:36;10.50;99.90
77829;DHT22;67019;51.034;3.728;2024-03-08T13:16:04;10.70;99.90
77829;DHT22;67019;51.034;3.728;2024-03-08T13:18:32;10.90;99.90
77829;DHT22;67019;51.034;3.728;2024-03-08T13:20:59;10.90;99.90
77829;DHT22;67019;51.034;3.728;2024-03-08T13:23:28;10.90;99.90
77829;DHT22;67019;51.034;3.728;2024-03-08T13:25:55;10.90;99.90
77829;DHT22;67019;51.034;3.728;2024-03-08T13:28:23;10.80;99.90
77829;DHT22;67019;51.034;3.728;2024-03-08T13:30:51;10.80;99.90
77829;DHT22;67019;51.034;3.728;2024-03-08T13:33:18;10.90;99.90
77829;DHT22;67019;51.034;3.728;2024-03-08T13:35:46;11.00;99.90
77829;DHT22;67019;51.034;3.728;2024-03-08T13:38:13;11.00;99.90
77829;DHT22;67019;51.034;3.728;2024-03-08T13:40:41;11.00;99.90
77829;DHT22;67019;51.034;3.728;2024-03-08T13:43:08;11.20;99.90
77829;DHT22;67019;51.034;3.728;2024-03-08T13:45:36;11.10;99.90
77829;DHT22;67019;51.034;3.728;2024-03-08T13:48:04;11.20;99.90
77829;DHT22;67019;51.034;3.728;2024-03-08T13:50:31;11.00;99.90
77829;DHT22;67019;51.034;3.728;2024-03-08T13:52:59;11.00;99.90
77829;DHT22;67019;51.034;3.728;2024-03-08T13:55:26;11.10;99.90
77829;DHT22;67019;51.034;3.728;2024-03-08T13:57:53;11.10;99.90
77829;DHT22;67019;51.034;3.728;2024-03-08T14:00:20;11.30;99.90
77829;DHT22;67019;51.034;3.728;2024-03-08T14:02:50;11.30;99.90
77829;DHT22;67019;51.034;3.728;2024-03-08T14:05:17;11.20;99.90
77829;DHT22;67019;51.034;3.728;2024-03-08T14:07:45;11.30;99.90
77829;DHT22;67019;51.034;3.728;2024-03-08T14:10:14;11.40;99.90
77829;DHT22;67019;51.034;3.728;2024-03-08T14:12:41;11.50;99.90
77829;DHT22;67019;51.034;3.728;2024-03-08T14:15:09;11.40;99.90
77829;DHT22;67019;51.034;3.728;2024-03-08T14:17:38;11.30;99.90
77829;DHT22;67019;51.034;3.728;2024-03-08T14:20:06;11.40;99.90
77829;DHT22;67019;51.034;3.728;2024-03-08T14:22:34;11.50;99.90
77829;DHT22;67019;51.034;3.728;2024-03-08T14:25:00;11.60;99.90
77829;DHT22;67019;51.034;3.728;2024-03-08T14:27:28;11.50;99.90
77829;DHT22;67019;51.034;3.728;2024-03-08T14:29:55;11.60;99.90
77829;DHT22;67019;51.034;3.728;2024-03-08T14:32:22;11.50;99.90
77829;DHT22;67019;51.034;3.728;2024-03-08T14:34:49;11.50;99.90
77829;DHT22;67019;51.034;3.728;2024-03-08T14:37:16;11.60;99.90
77829;DHT22;67019;51.034;3.728;2024-03-08T14:39:45;11.70;99.90
77829;DHT22;67019;51.034;3.728;2024-03-08T14:42:16;11.70;99.90
77829;DHT22;67019;51.034;3.728;2024-03-08T14:44:48;11.70;99.90
77829;DHT22;67019;51.034;3.728;2024-03-08T14:47:13;11.80;99.90
77829;DHT22;67019;51.034;3.728;2024-03-08T14:50:19;11.80;99.90
77829;DHT22;67019;51.034;3.728;2024-03-08T14:52:21;11.80;99.90
77829;DHT22;67019;51.034;3.728;2024-03-08T14:54:56;11.80;99.90
77829;DHT22;67019;51.034;3.728;2024-03-08T15:17:01;12.10;99.90
77829;DHT22;67019;51.034;3.728;2024-03-08T15:19:30;12.00;99.90
77829;DHT22;67019;51.034;3.728;2024-03-08T15:21:58;12.10;99.90
77829;DHT22;67019;51.034;3.728;2024-03-08T15:24:27;12.00;99.90
77829;DHT22;67019;51.034;3.728;2024-03-08T15:27:16;12.10;99.90
77829;DHT22;67019;51.034;3.728;2024-03-08T15:29:34;12.20;99.90
77829;DHT22;67019;51.034;3.728;2024-03-08T15:34:37;12.20;99.90
77829;DHT22;67019;51.034;3.728;2024-03-08T15:37:07;12.20;99.90
77829;DHT22;67019;51.034;3.728;2024-03-08T15:39:36;12.20;99.90
77829;DHT22;67019;51.034;3.728;2024-03-08T15:42:04;12.50;99.90
77829;DHT22;67019;51.034;3.728;2024-03-08T15:44:33;13.00;99.90
77829;DHT22;67019;51.034;3.728;2024-03-08T15:47:00;13.00;99.70
77829;DHT22;67019;51.034;3.728;2024-03-08T15:49:26;13.60;99.10
77829;DHT22;67019;51.034;3.728;2024-03-08T15:51:54;13.40;99.40
77829;DHT22;67019;51.034;3.728;2024-03-08T15:54:21;13.80;98.50
77829;DHT22;67019;51.034;3.728;2024-03-08T15:56:48;14.20;97.00
77829;DHT22;67019;51.034;3.728;2024-03-08T15:59:15;14.50;95.70
77829;DHT22;67019;51.034;3.728;2024-03-08T16:01:43;14.40;96.20
77829;DHT22;67019;51.034;3.728;2024-03-08T16:04:12;14.80;95.20
77829;DHT22;67019;51.034;3.728;2024-03-08T16:06:38;14.70;94.80
77829;DHT22;67019;51.034;3.728;2024-03-08T16:09:06;14.60;95.10
77829;DHT22;67019;51.034;3.728;2024-03-08T16:11:41;14.10;96.50
77829;DHT22;67019;51.034;3.728;2024-03-08T16:14:09;13.50;97.50
77829;DHT22;67019;51.034;3.728;2024-03-08T16:16:39;13.50;98.10
77829;DHT22;67019;51.034;3.728;2024-03-08T16:19:07;13.70;97.30
77829;DHT22;67019;51.034;3.728;2024-03-08T16:21:34;13.70;97.40
77829;DHT22;67019;51.034;3.728;2024-03-08T16:24:01;13.20;98.50